Time;durP1;ratioP1;P1;durP2;ratioP2;P2;SDS_P1;SDS_P2;PMS_P1;PMS_P2;Temp;Humidity;BMP_temperature;BMP_pressure;BME280_temperature;BME280_humidity;BME280_pressure;Samples;Min_cycle;Max_cycle;Signal;HPM_P1;HPM_P2
2022/02/27 00:00:40;;;;;;;24.90;10.23;;;-1.50;99.90;;;;;;4977091;28;20019;-76
2022/02/27 00:03:05;;;;;;;25.97;10.40;;;-1.50;99.90;;;;;;4994588;28;20042;-76
2022/02/27 00:05:31;;;;;;;26.60;11.17;;;-1.60;99.90;;;;;;4994198;28;20034;-76
2022/02/27 00:07:56;;;;;;;21.87;11.23;;;-1.50;99.90;;;;;;4992799;28;20121;-76
2022/02/27 00:10:22;;;;;;;28.70;11.97;;;-1.60;99.90;;;;;;4994079;28;20113;-76
2022/02/27 00:12:51;;;;;;;30.57;11.80;;;-1.60;99.90;;;;;;4994210;28;20408;-76
2022/02/27 00:15:17;;;;;;;26.73;10.43;;;-1.60;99.90;;;;;;4992864;28;20041;-75
2022/02/27 00:17:43;;;;;;;25.77;10.90;;;-1.70;99.90;;;;;;4993897;28;20387;-76
2022/02/27 00:20:10;;;;;;;26.80;10.60;;;-1.70;99.90;;;;;;4993990;28;20085;-76
2022/02/27 00:22:36;;;;;;;23.27;10.27;;;-1.70;99.90;;;;;;4994081;28;20034;-76
2022/02/27 00:25:02;;;;;;;25.27;11.50;;;-1.70;99.90;;;;;;4994062;28;20041;-76
2022/02/27 00:27:27;;;;;;;23.93;10.10;;;-1.70;99.90;;;;;;4993962;28;20451;-76
2022/02/27 00:29:53;;;;;;;23.13;11.70;;;-1.80;99.90;;;;;;4993903;28;20066;-75
2022/02/27 00:32:18;;;;;;;19.53;10.00;;;-1.70;99.90;;;;;;4993928;28;20035;-76
2022/02/27 00:34:44;;;;;;;24.87;11.60;;;-1.80;99.90;;;;;;4993917;28;20026;-76
2022/02/27 00:37:09;;;;;;;27.10;12.20;;;-1.80;99.90;;;;;;4993945;28;20030;-76
2022/02/27 00:39:35;;;;;;;25.07;11.20;;;-1.80;99.90;;;;;;4976281;28;20066;-76
2022/02/27 00:42:01;;;;;;;29.47;11.47;;;-1.80;99.90;;;;;;4994018;28;20042;-76
2022/02/27 00:44:26;;;;;;;37.00;12.17;;;-1.90;99.90;;;;;;4994838;28;20045;-77
2022/02/27 00:46:52;;;;;;;24.17;11.10;;;-1.90;99.90;;;;;;5013492;28;20041;-77
2022/02/27 00:49:17;;;;;;;25.90;10.83;;;-1.90;99.90;;;;;;5013149;28;20045;-76
2022/02/27 00:51:43;;;;;;;25.67;10.97;;;-1.90;99.90;;;;;;4995443;28;20063;-76
2022/02/27 00:54:09;;;;;;;26.70;9.27;;;-1.80;99.90;;;;;;4995722;28;20033;-77
2022/02/27 00:56:35;;;;;;;20.27;8.57;;;-1.80;99.90;;;;;;4995884;28;20054;-77
2022/02/27 00:59:01;;;;;;;19.20;8.60;;;-1.70;99.90;;;;;;5013280;28;20026;-77
2022/02/27 01:01:26;;;;;;;19.33;8.57;;;-1.70;99.90;;;;;;4995707;28;20022;-77
2022/02/27 01:03:52;;;;;;;22.00;9.40;;;-1.60;99.90;;;;;;4995754;28;20030;-77
2022/02/27 01:06:17;;;;;;;21.83;8.53;;;-1.50;99.90;;;;;;4995347;28;20117;-76
2022/02/27 01:08:43;;;;;;;18.77;7.57;;;-1.50;99.90;;;;;;4995905;28;20398;-76
2022/02/27 01:11:09;;;;;;;22.57;7.93;;;-1.30;99.90;;;;;;5012884;28;20030;-76
2022/02/27 01:13:35;;;;;;;18.43;7.13;;;-1.20;99.90;;;;;;4995319;28;20065;-76
2022/02/27 01:16:01;;;;;;;21.13;7.73;;;-1.10;99.90;;;;;;5013043;28;20050;-76
2022/02/27 01:18:26;;;;;;;20.30;6.80;;;-1.10;99.90;;;;;;4995405;28;20038;-76
2022/02/27 01:20:52;;;;;;;15.03;6.63;;;-1.00;99.90;;;;;;4995580;28;20033;-76
2022/02/27 01:23:17;;;;;;;16.53;6.40;;;-1.00;99.90;;;;;;5013078;28;20376;-76
2022/02/27 01:25:43;;;;;;;17.67;6.20;;;-1.00;99.90;;;;;;5013004;28;20388;-76
2022/02/27 01:28:08;;;;;;;24.23;6.90;;;-1.00;99.90;;;;;;4995471;28;20095;-76
2022/02/27 01:30:34;;;;;;;16.13;6.47;;;-1.00;99.90;;;;;;5013127;28;20172;-76
2022/02/27 01:33:00;;;;;;;16.53;7.33;;;-1.00;99.90;;;;;;5012892;28;20041;-76
2022/02/27 01:35:26;;;;;;;27.63;8.10;;;-1.00;99.90;;;;;;5012976;28;20022;-77
2022/02/27 01:37:52;;;;;;;20.13;7.97;;;-1.10;99.90;;;;;;4995401;28;20172;-77
2022/02/27 01:40:17;;;;;;;24.37;9.80;;;-1.10;99.90;;;;;;5012690;28;20057;-77
2022/02/27 01:42:43;;;;;;;18.50;6.73;;;-1.20;99.90;;;;;;5012907;28;20534;-77
2022/02/27 01:45:09;;;;;;;21.57;7.97;;;-1.20;99.90;;;;;;5013011;28;20030;-77
2022/02/27 01:47:34;;;;;;;17.40;7.73;;;-1.20;99.90;;;;;;5012980;28;20033;-77
2022/02/27 01:50:01;;;;;;;15.20;6.70;;;-1.20;99.90;;;;;;5012751;28;20096;-77
2022/02/27 01:52:27;;;;;;;19.70;7.77;;;-1.30;99.90;;;;;;5013017;28;20146;-77
2022/02/27 01:55:02;;;;;;;17.93;6.80;;;-1.30;99.90;;;;;;5012744;28;20439;-76
2022/02/27 01:57:28;;;;;;;16.10;5.97;;;-1.40;99.90;;;;;;4995130;28;20133;-75
2022/02/27 01:59:54;;;;;;;17.10;6.27;;;-1.40;99.90;;;;;;5012770;28;20054;-75
2022/02/27 02:02:19;;;;;;;21.20;7.03;;;-1.40;99.90;;;;;;5012838;28;20058;-75
2022/02/27 02:04:45;;;;;;;20.37;6.80;;;-1.40;99.90;;;;;;5012888;28;20038;-76
2022/02/27 02:07:11;;;;;;;21.23;6.10;;;-1.40;99.90;;;;;;5012756;28;20030;-76
2022/02/27 02:09:37;;;;;;;19.00;7.33;;;-1.40;99.90;;;;;;4994951;28;20033;-76
2022/02/27 02:12:04;;;;;;;15.27;6.00;;;-1.40;99.90;;;;;;5012628;28;20103;-76
2022/02/27 02:14:29;;;;;;;16.03;6.77;;;-1.50;99.90;;;;;;5012248;28;20071;-76
2022/02/27 02:16:55;;;;;;;19.63;7.10;;;-1.50;99.90;;;;;;5012572;28;20109;-75
2022/02/27 02:19:23;;;;;;;21.60;6.67;;;-1.50;99.90;;;;;;5015577;28;20115;-75
2022/02/27 02:21:54;;;;;;;17.30;6.97;;;-1.50;99.90;;;;;;5015924;28;20164;-75
2022/02/27 02:24:21;;;;;;;16.60;5.60;;;-1.50;99.90;;;;;;4998246;28;20368;-75
2022/02/27 02:26:47;;;;;;;17.87;6.10;;;-1.40;99.90;;;;;;5016070;28;20363;-75
2022/02/27 02:29:16;;;;;;;17.53;6.37;;;-1.40;99.90;;;;;;5015952;28;20061;-76
2022/02/27 02:31:43;;;;;;;19.20;6.80;;;-1.50;99.90;;;;;;5015736;28;20061;-75
2022/02/27 02:34:12;;;;;;;14.90;6.77;;;-1.60;99.90;;;;;;4998493;28;20021;-76
2022/02/27 02:36:39;;;;;;;16.70;6.83;;;-1.60;99.90;;;;;;5015054;28;20033;-77
2022/02/27 02:39:07;;;;;;;20.47;6.90;;;-1.60;99.90;;;;;;5013498;28;20104;-76
2022/02/27 02:41:32;;;;;;;16.63;6.43;;;-1.70;99.90;;;;;;5003570;28;20033;-76
2022/02/27 02:43:58;;;;;;;20.77;8.20;;;-1.70;99.90;;;;;;5006869;28;20023;-76
2022/02/27 02:46:24;;;;;;;15.00;6.57;;;-1.70;99.90;;;;;;5010654;28;20057;-76
2022/02/27 02:48:50;;;;;;;16.73;7.03;;;-1.80;99.90;;;;;;5015101;28;20022;-75
2022/02/27 02:51:16;;;;;;;16.90;7.07;;;-1.80;99.90;;;;;;5004193;28;20109;-75
2022/02/27 02:53:42;;;;;;;16.13;7.03;;;-1.80;99.90;;;;;;5014987;28;20029;-75
2022/02/27 02:56:09;;;;;;;12.63;6.87;;;-1.80;99.90;;;;;;4997924;28;20475;-75
2022/02/27 02:58:36;;;;;;;20.27;6.80;;;-1.80;99.90;;;;;;5012347;28;20030;-75
2022/02/27 03:01:03;;;;;;;15.00;6.13;;;-1.80;99.90;;;;;;5015079;28;20101;-75
2022/02/27 03:03:29;;;;;;;13.73;6.43;;;-1.90;99.90;;;;;;5015052;28;20026;-75
2022/02/27 03:05:54;;;;;;;18.50;6.97;;;-1.80;99.90;;;;;;5015038;28;20033;-75
2022/02/27 03:08:20;;;;;;;19.37;7.40;;;-1.90;99.90;;;;;;4997360;28;20080;-76
2022/02/27 03:10:46;;;;;;;21.67;7.27;;;-1.90;99.90;;;;;;5014809;28;20111;-76
2022/02/27 03:13:11;;;;;;;16.33;6.67;;;-1.90;99.90;;;;;;4996553;28;20164;-76
2022/02/27 03:15:37;;;;;;;17.73;6.77;;;-2.00;99.90;;;;;;4996867;28;20025;-76
2022/02/27 03:18:03;;;;;;;19.07;7.13;;;-2.00;99.90;;;;;;5014619;28;20033;-75
2022/02/27 03:20:29;;;;;;;15.40;7.67;;;-2.00;99.90;;;;;;5014802;28;20021;-75
2022/02/27 03:22:55;;;;;;;18.23;7.00;;;-2.00;99.90;;;;;;5014621;28;20038;-75
2022/02/27 03:25:20;;;;;;;20.77;7.33;;;-2.00;99.90;;;;;;4996999;28;20033;-76
2022/02/27 03:27:46;;;;;;;16.03;7.03;;;-2.10;99.90;;;;;;5014487;28;20033;-75
2022/02/27 03:30:11;;;;;;;15.57;7.73;;;-2.10;99.90;;;;;;5014352;28;20108;-75
2022/02/27 03:32:37;;;;;;;15.23;6.80;;;-2.10;99.90;;;;;;5014481;28;20025;-76
2022/02/27 03:35:03;;;;;;;17.27;7.43;;;-2.10;99.90;;;;;;5014844;28;20022;-75
2022/02/27 03:37:28;;;;;;;17.50;6.87;;;-2.20;99.90;;;;;;4996941;28;20348;-75
2022/02/27 03:39:54;;;;;;;23.87;7.70;;;-2.20;99.90;;;;;;5014439;28;20115;-75
2022/02/27 03:42:19;;;;;;;14.27;6.67;;;-2.20;99.90;;;;;;5014417;28;20493;-75
2022/02/27 03:44:45;;;;;;;19.60;7.13;;;-2.20;99.90;;;;;;5014211;28;20037;-75
2022/02/27 03:47:11;;;;;;;23.07;7.90;;;-2.20;99.90;;;;;;5014310;28;20091;-75
2022/02/27 03:49:36;;;;;;;19.50;7.50;;;-2.20;99.90;;;;;;4996556;28;20029;-75
2022/02/27 03:52:03;;;;;;;21.37;7.57;;;-2.20;99.90;;;;;;5014043;28;20478;-75
2022/02/27 03:54:30;;;;;;;18.97;7.20;;;-2.20;99.90;;;;;;5014001;28;20018;-75
2022/02/27 03:56:56;;;;;;;20.10;7.03;;;-2.20;99.90;;;;;;4996692;28;20331;-75
2022/02/27 03:59:21;;;;;;;19.63;7.40;;;-2.30;99.90;;;;;;5013947;28;20029;-76
2022/02/27 04:01:47;;;;;;;16.73;7.50;;;-2.30;99.90;;;;;;5013949;28;20025;-75
2022/02/27 04:04:12;;;;;;;19.20;7.90;;;-2.30;99.90;;;;;;4996249;28;20020;-75
2022/02/27 04:06:38;;;;;;;19.77;8.40;;;-2.30;99.90;;;;;;5013955;28;20037;-76
2022/02/27 04:09:03;;;;;;;18.07;7.83;;;-2.30;99.90;;;;;;4996259;28;20362;-75
2022/02/27 04:11:29;;;;;;;22.27;7.60;;;-2.40;99.90;;;;;;5013948;28;20036;-77
2022/02/27 04:13:55;;;;;;;18.97;8.00;;;-2.40;99.90;;;;;;5013687;28;20034;-74
2022/02/27 04:16:20;;;;;;;20.93;7.97;;;-2.40;99.90;;;;;;5013758;28;20080;-75
2022/02/27 04:18:46;;;;;;;17.60;7.27;;;-2.40;99.90;;;;;;5013611;28;20447;-76
2022/02/27 04:21:11;;;;;;;18.27;8.43;;;-2.40;99.90;;;;;;4996080;28;20452;-75
2022/02/27 04:23:37;;;;;;;17.57;7.97;;;-2.50;99.90;;;;;;5013588;28;20160;-75
2022/02/27 04:26:03;;;;;;;18.53;7.50;;;-2.50;99.90;;;;;;5013394;28;20105;-75
2022/02/27 04:28:28;;;;;;;16.97;7.10;;;-2.50;99.90;;;;;;5013398;28;20030;-76
2022/02/27 04:30:54;;;;;;;15.13;7.23;;;-2.50;99.90;;;;;;5013283;28;20022;-76
2022/02/27 04:33:19;;;;;;;18.50;8.77;;;-2.60;99.90;;;;;;5013260;28;20463;-75
2022/02/27 04:35:45;;;;;;;14.83;7.73;;;-2.60;99.90;;;;;;5013260;28;20033;-76
2022/02/27 04:38:10;;;;;;;18.37;7.40;;;-2.60;99.90;;;;;;5013088;28;20101;-75
2022/02/27 04:40:36;;;;;;;18.73;7.80;;;-2.60;99.90;;;;;;5012386;28;20471;-75
2022/02/27 04:43:02;;;;;;;19.60;8.17;;;-2.60;99.90;;;;;;4995483;28;20018;-75
2022/02/27 04:45:29;;;;;;;22.03;8.53;;;-2.60;99.90;;;;;;5001240;28;20072;-76
2022/02/27 04:47:55;;;;;;;21.80;8.83;;;-2.60;99.90;;;;;;5012909;28;20104;-75
2022/02/27 04:50:20;;;;;;;19.17;7.80;;;-2.60;99.90;;;;;;5012628;28;20044;-75
2022/02/27 04:52:46;;;;;;;20.50;8.07;;;-2.60;99.90;;;;;;5012237;28;20032;-75
2022/02/27 04:55:12;;;;;;;23.07;7.50;;;-2.60;99.90;;;;;;5012237;28;20464;-75
2022/02/27 04:57:37;;;;;;;18.60;7.60;;;-2.60;99.90;;;;;;5012206;28;20018;-75
2022/02/27 05:00:07;;;;;;;20.30;8.60;;;-2.60;99.90;;;;;;5012422;28;20100;-76
2022/02/27 05:02:34;;;;;;;19.13;8.63;;;-2.60;99.90;;;;;;5012134;28;20451;-75
2022/02/27 05:05:00;;;;;;;24.93;9.13;;;-2.70;99.90;;;;;;5012310;28;20080;-75
2022/02/27 05:07:26;;;;;;;19.07;8.23;;;-2.70;99.90;;;;;;5011855;28;20030;-76
2022/02/27 05:09:52;;;;;;;22.43;11.07;;;-2.70;99.90;;;;;;5011899;28;20450;-75
2022/02/27 05:12:17;;;;;;;26.87;9.47;;;-2.70;99.90;;;;;;5012126;28;20114;-75
2022/02/27 05:14:43;;;;;;;18.73;10.70;;;-2.70;99.90;;;;;;4994829;28;20079;-75
2022/02/27 05:17:09;;;;;;;19.20;13.67;;;-2.70;99.90;;;;;;5012396;28;20126;-76
2022/02/27 05:19:34;;;;;;;28.20;20.07;;;-2.70;99.90;;;;;;5012195;28;20463;-76
2022/02/27 05:22:00;;;;;;;20.97;9.60;;;-2.70;99.90;;;;;;5012277;28;20786;-76
2022/02/27 05:24:25;;;;;;;15.83;8.03;;;-2.70;99.90;;;;;;4994290;28;20026;-76
2022/02/27 05:26:51;;;;;;;17.80;8.30;;;-2.70;99.90;;;;;;5012108;28;20030;-76
2022/02/27 05:29:17;;;;;;;19.10;8.13;;;-2.60;99.90;;;;;;4994597;28;20382;-76
2022/02/27 05:31:42;;;;;;;17.80;7.10;;;-2.60;99.90;;;;;;5011972;28;20383;-76
2022/02/27 05:34:09;;;;;;;16.17;9.50;;;-2.60;99.90;;;;;;4994752;28;20026;-76
2022/02/27 05:36:34;;;;;;;15.63;8.00;;;-2.60;99.90;;;;;;5012024;28;20049;-76
2022/02/27 05:39:01;;;;;;;20.57;8.87;;;-2.60;99.90;;;;;;5011948;28;20045;-76
2022/02/27 05:41:26;;;;;;;16.83;7.50;;;-2.60;99.90;;;;;;5012405;28;20353;-76
2022/02/27 05:43:52;;;;;;;17.47;7.87;;;-2.70;99.90;;;;;;5012363;28;20030;-76
2022/02/27 05:46:18;;;;;;;14.27;7.27;;;-2.70;99.90;;;;;;5009204;28;20026;-76
2022/02/27 05:48:44;;;;;;;15.20;7.37;;;-2.70;99.90;;;;;;5000692;28;20518;-76
2022/02/27 05:51:09;;;;;;;15.57;7.27;;;-2.80;99.90;;;;;;4994670;28;20144;-76
2022/02/27 05:53:35;;;;;;;19.33;7.70;;;-2.70;99.90;;;;;;5015954;28;20045;-76
2022/02/27 05:56:01;;;;;;;19.20;7.90;;;-2.80;99.90;;;;;;5015778;28;20103;-76
2022/02/27 05:58:27;;;;;;;18.30;8.50;;;-2.80;99.90;;;;;;4998195;28;20026;-76
2022/02/27 06:00:53;;;;;;;18.37;7.77;;;-2.90;99.90;;;;;;5015912;28;20079;-76
2022/02/27 06:03:19;;;;;;;15.07;7.37;;;-2.90;99.90;;;;;;5016152;28;20048;-76
2022/02/27 06:05:45;;;;;;;18.27;8.17;;;-2.90;99.90;;;;;;4998041;28;20030;-76
2022/02/27 06:08:12;;;;;;;16.37;7.73;;;-2.90;99.90;;;;;;5015695;28;20037;-76
2022/02/27 06:10:37;;;;;;;18.53;8.43;;;-2.90;99.90;;;;;;4997795;28;20490;-76
2022/02/27 06:13:03;;;;;;;16.07;8.63;;;-2.90;99.90;;;;;;5015597;28;20026;-76
2022/02/27 06:15:28;;;;;;;14.10;8.37;;;-2.90;99.90;;;;;;4997952;28;20022;-76
2022/02/27 06:17:54;;;;;;;18.83;7.67;;;-2.80;99.90;;;;;;5015758;28;20018;-76
2022/02/27 06:20:20;;;;;;;16.47;7.67;;;-2.80;99.90;;;;;;5015386;28;20080;-76
2022/02/27 06:22:47;;;;;;;21.33;9.30;;;-2.80;99.90;;;;;;5015210;28;20546;-76
2022/02/27 06:25:16;;;;;;;22.97;10.10;;;-2.80;99.90;;;;;;5015193;28;20030;-76
2022/02/27 06:27:44;;;;;;;23.23;8.70;;;-2.80;99.90;;;;;;5015388;28;20502;-76
2022/02/27 06:30:11;;;;;;;17.67;8.83;;;-2.80;99.90;;;;;;5015244;28;20086;-76
2022/02/27 06:32:37;;;;;;;26.37;9.40;;;-2.80;99.90;;;;;;5014929;28;20050;-76
2022/02/27 06:35:08;;;;;;;17.50;8.07;;;-2.70;99.90;;;;;;5014847;28;20064;-76
2022/02/27 06:37:34;;;;;;;17.10;8.30;;;-2.70;99.90;;;;;;4997264;28;20403;-76
2022/02/27 06:39:59;;;;;;;18.70;8.50;;;-2.70;99.90;;;;;;4994036;28;20052;-76
2022/02/27 06:42:25;;;;;;;16.70;7.53;;;-2.70;99.90;;;;;;4995459;28;20034;-76
2022/02/27 06:44:51;;;;;;;15.77;8.40;;;-2.70;99.90;;;;;;4995090;28;20109;-77
2022/02/27 06:47:17;;;;;;;15.97;8.13;;;-2.70;99.90;;;;;;4994419;28;20053;-76
2022/02/27 06:49:43;;;;;;;18.13;7.83;;;-2.70;99.90;;;;;;4995409;28;20037;-76
2022/02/27 06:52:09;;;;;;;13.03;7.17;;;-2.70;99.90;;;;;;4995734;28;20030;-76
2022/02/27 06:54:35;;;;;;;11.63;6.60;;;-2.60;99.90;;;;;;4995405;28;20026;-76
2022/02/27 06:57:00;;;;;;;18.97;7.93;;;-2.50;99.90;;;;;;4995498;28;20018;-76
2022/02/27 06:59:26;;;;;;;16.77;9.27;;;-2.30;99.90;;;;;;4995453;28;20435;-76
2022/02/27 07:01:52;;;;;;;23.03;11.93;;;-2.00;99.90;;;;;;4995229;28;20022;-76
2022/02/27 07:04:17;;;;;;;25.53;9.07;;;-1.90;99.90;;;;;;4983331;28;20027;-76
2022/02/27 07:06:43;;;;;;;20.57;9.27;;;-1.80;99.90;;;;;;4983765;28;20023;-76
2022/02/27 07:09:08;;;;;;;19.50;8.47;;;-1.70;99.90;;;;;;4982866;28;20015;-76
2022/02/27 07:11:34;;;;;;;19.83;7.87;;;-1.60;99.90;;;;;;4988433;28;20058;-76
2022/02/27 07:13:59;;;;;;;14.63;7.27;;;-1.50;99.90;;;;;;4977018;28;20022;-76
2022/02/27 07:16:27;;;;;;;18.53;7.10;;;-1.50;99.90;;;;;;4992111;28;20018;-79
2022/02/27 07:18:55;;;;;;;20.17;8.13;;;-1.40;99.90;;;;;;4990017;28;20018;-80
2022/02/27 07:21:21;;;;;;;13.27;8.50;;;-1.30;99.90;;;;;;4991519;28;20077;-80
2022/02/27 07:23:46;;;;;;;17.10;8.00;;;-1.10;99.90;;;;;;4991660;28;20027;-80
2022/02/27 07:26:12;;;;;;;16.27;7.33;;;-1.10;99.90;;;;;;4986352;28;20042;-73
2022/02/27 07:28:38;;;;;;;16.73;7.83;;;-0.80;99.90;;;;;;4994622;28;20376;-73
2022/02/27 07:31:03;;;;;;;20.60;8.67;;;-0.70;99.90;;;;;;4986892;28;20037;-73
2022/02/27 07:33:29;;;;;;;16.67;8.00;;;-0.70;99.90;;;;;;4994456;28;20038;-73
2022/02/27 07:35:54;;;;;;;19.60;9.93;;;-0.60;99.90;;;;;;4992656;28;20023;-78
2022/02/27 07:38:20;;;;;;;25.73;14.80;;;-0.50;99.90;;;;;;4991703;28;20057;-78
2022/02/27 07:41:04;;;;;;;21.30;8.40;;;-0.40;99.90;;;;;;5009134;28;20046;-78
2022/02/27 07:43:29;;;;;;;18.77;8.87;;;-0.30;99.90;;;;;;4990004;28;20085;-80
2022/02/27 07:45:55;;;;;;;21.70;9.90;;;0.00;99.90;;;;;;4996453;28;20147;-80
2022/02/27 07:48:20;;;;;;;20.20;9.63;;;0.10;99.90;;;;;;5006909;28;20108;-80
2022/02/27 07:50:46;;;;;;;21.80;9.87;;;0.30;99.90;;;;;;4991943;28;20038;-80
2022/02/27 07:53:12;;;;;;;18.30;9.30;;;0.40;99.90;;;;;;4997921;28;20061;-76
2022/02/27 07:55:37;;;;;;;17.73;9.53;;;0.70;99.90;;;;;;5033789;28;20029;-76
2022/02/27 07:58:03;;;;;;;14.93;7.77;;;0.90;99.90;;;;;;5028556;28;20030;-75
2022/02/27 08:00:29;;;;;;;16.87;9.30;;;1.20;99.90;;;;;;4995495;28;20093;-75
2022/02/27 08:02:54;;;;;;;15.20;8.43;;;1.20;99.90;;;;;;5013948;28;20466;-76
2022/02/27 08:05:20;;;;;;;16.70;8.80;;;1.40;99.90;;;;;;4995678;28;20030;-76
2022/02/27 08:07:46;;;;;;;15.83;8.23;;;1.60;99.90;;;;;;5013701;28;20096;-76
2022/02/27 08:10:12;;;;;;;18.20;9.57;;;1.70;99.90;;;;;;4996235;28;20386;-76
2022/02/27 08:12:45;;;;;;;21.17;10.27;;;1.70;99.90;;;;;;5013838;28;20033;-75
2022/02/27 08:15:14;;;;;;;14.47;8.87;;;1.80;99.90;;;;;;5011669;28;20022;-74
2022/02/27 08:17:40;;;;;;;13.80;7.97;;;2.00;99.90;;;;;;5011317;28;20060;-74
2022/02/27 08:20:06;;;;;;;18.57;8.73;;;2.00;99.90;;;;;;5006144;28;20040;-75
2022/02/27 08:22:32;;;;;;;17.80;9.03;;;2.00;99.90;;;;;;5009008;28;20034;-74
2022/02/27 08:24:57;;;;;;;14.37;8.97;;;2.10;99.90;;;;;;5012407;28;20112;-74
2022/02/27 08:27:23;;;;;;;16.07;8.47;;;2.30;99.90;;;;;;5011001;28;20036;-75
2022/02/27 08:29:53;;;;;;;17.37;8.67;;;2.40;99.90;;;;;;5013191;28;20022;-75
2022/02/27 08:32:20;;;;;;;15.03;8.63;;;2.60;99.90;;;;;;4992413;28;20034;-76
2022/02/27 08:34:45;;;;;;;16.87;8.17;;;2.70;99.90;;;;;;5010383;28;20441;-75
2022/02/27 08:37:11;;;;;;;15.80;8.67;;;2.80;99.90;;;;;;4995464;28;20018;-75
2022/02/27 08:39:36;;;;;;;15.03;8.53;;;2.80;99.90;;;;;;5013151;28;20121;-75
2022/02/27 08:42:03;;;;;;;13.33;8.40;;;3.00;99.90;;;;;;5013094;28;20149;-75
2022/02/27 08:44:30;;;;;;;12.77;7.53;;;3.10;99.90;;;;;;5008603;28;20030;-75
2022/02/27 08:46:58;;;;;;;16.10;7.73;;;3.40;99.90;;;;;;5013293;28;20100;-75
2022/02/27 08:49:24;;;;;;;17.73;8.93;;;3.40;99.90;;;;;;4995608;28;20475;-75
2022/02/27 08:51:51;;;;;;;9.87;6.90;;;3.50;99.90;;;;;;5013029;28;20104;-75
2022/02/27 08:54:17;;;;;;;16.47;8.27;;;3.50;99.90;;;;;;5013173;28;20370;-75
2022/02/27 08:56:42;;;;;;;11.63;6.70;;;3.70;99.90;;;;;;5013036;28;20022;-75
2022/02/27 08:59:08;;;;;;;11.83;6.60;;;3.80;99.90;;;;;;5012810;28;20018;-75
2022/02/27 09:01:34;;;;;;;16.23;7.67;;;4.00;99.90;;;;;;4995471;28;20076;-75
2022/02/27 09:03:59;;;;;;;11.23;6.67;;;4.00;99.90;;;;;;5013167;28;20049;-74
2022/02/27 09:06:25;;;;;;;13.90;6.77;;;4.00;99.90;;;;;;4995320;28;20052;-75
2022/02/27 09:08:50;;;;;;;10.57;6.70;;;4.00;99.90;;;;;;5013128;28;20344;-75
2022/02/27 09:11:17;;;;;;;14.10;7.07;;;4.20;99.90;;;;;;5012942;28;20026;-76
2022/02/27 09:13:42;;;;;;;9.93;6.27;;;4.30;99.90;;;;;;4994863;28;20120;-75
2022/02/27 09:16:08;;;;;;;15.13;6.90;;;4.50;99.90;;;;;;5012802;28;20412;-75
2022/02/27 09:18:33;;;;;;;11.67;6.80;;;4.70;99.90;;;;;;5013147;28;20105;-75
2022/02/27 09:20:59;;;;;;;9.77;5.83;;;4.60;99.90;;;;;;5012922;28;20471;-75
2022/02/27 09:23:25;;;;;;;13.60;6.90;;;4.70;99.90;;;;;;5012870;28;20075;-75
2022/02/27 09:25:51;;;;;;;10.47;5.60;;;4.70;99.90;;;;;;5012668;28;20029;-75
2022/02/27 09:28:16;;;;;;;9.37;5.40;;;4.60;99.90;;;;;;5016099;28;20034;-75
2022/02/27 09:30:43;;;;;;;11.50;6.90;;;4.20;99.90;;;;;;5016521;28;20029;-75
2022/02/27 09:33:08;;;;;;;10.10;5.80;;;4.10;99.90;;;;;;4998925;28;20061;-75
2022/02/27 09:35:34;;;;;;;11.73;6.07;;;4.20;99.90;;;;;;4999088;28;20478;-75
2022/02/27 09:38:00;;;;;;;9.80;5.90;;;4.50;99.90;;;;;;5016524;28;20081;-75
2022/02/27 09:40:27;;;;;;;9.23;5.40;;;4.60;99.90;;;;;;5016504;28;20113;-75
2022/02/27 09:42:53;;;;;;;10.77;6.33;;;4.80;99.90;;;;;;5016811;28;20030;-75
2022/02/27 09:45:23;;;;;;;13.73;8.47;;;5.00;99.90;;;;;;5013457;28;20032;-75
2022/02/27 09:47:50;;;;;;;9.43;6.00;;;5.10;99.90;;;;;;5016292;28;20040;-75
2022/02/27 09:50:17;;;;;;;10.70;6.60;;;5.10;99.90;;;;;;5016163;28;20133;-75
2022/02/27 09:52:42;;;;;;;7.53;5.20;;;4.70;99.90;;;;;;4998395;28;20523;-75
2022/02/27 09:55:10;;;;;;;9.60;6.13;;;4.80;99.90;;;;;;5016113;28;20084;-75
2022/02/27 09:57:36;;;;;;;7.07;4.93;;;4.90;99.90;;;;;;5016224;28;20364;-75
2022/02/27 10:00:05;;;;;;;9.83;5.80;;;5.10;99.90;;;;;;4998096;28;20080;-75
2022/02/27 10:02:32;;;;;;;10.67;5.80;;;5.10;99.90;;;;;;5015944;28;20072;-75
2022/02/27 10:05:00;;;;;;;9.77;6.00;;;5.20;99.90;;;;;;5015807;28;20036;-75
2022/02/27 10:07:26;;;;;;;10.37;6.77;;;5.30;99.90;;;;;;4998208;28;20030;-75
2022/02/27 10:10:06;;;;;;;7.60;5.30;;;5.30;99.90;;;;;;5015679;28;20779;-75
2022/02/27 10:12:31;;;;;;;7.87;5.37;;;5.20;99.90;;;;;;5015866;28;20124;-75
2022/02/27 10:14:59;;;;;;;8.10;5.63;;;5.00;99.90;;;;;;4998078;28;20061;-75
2022/02/27 10:17:37;;;;;;;8.53;5.50;;;4.90;99.90;;;;;;5015446;28;20049;-74
2022/02/27 10:20:08;;;;;;;7.87;6.00;;;5.00;99.90;;;;;;5015427;28;20021;-74
2022/02/27 10:22:39;;;;;;;8.43;5.33;;;5.00;99.90;;;;;;5012501;28;20391;-75
2022/02/27 10:25:10;;;;;;;9.37;5.60;;;5.00;99.90;;;;;;4997729;28;20037;-75
2022/02/27 10:27:50;;;;;;;10.63;5.17;;;5.10;99.90;;;;;;4997282;28;20056;-75
2022/02/27 10:30:27;;;;;;;7.60;5.10;;;5.50;99.90;;;;;;5006758;28;20034;-75
2022/02/27 10:33:02;;;;;;;8.27;4.70;;;5.90;99.90;;;;;;4983809;28;20038;-75
2022/02/27 10:35:50;;;;;;;6.93;3.87;;;6.20;99.90;;;;;;4990923;28;20032;-75
2022/02/27 10:39:15;;;;;;;7.40;4.60;;;6.50;99.90;;;;;;4994633;28;20018;-75
2022/02/27 10:41:22;;;;;;;7.75;5.25;;;6.70;99.90;;;;;;4989994;28;20064;-75
2022/02/27 10:43:48;;;;;;;8.67;5.27;;;6.60;99.90;;;;;;4986350;28;20470;-75
2022/02/27 10:46:19;;;;;;;9.00;5.27;;;6.30;99.90;;;;;;4997314;28;20029;-75
2022/02/27 10:48:49;;;;;;;10.30;5.10;;;5.90;99.90;;;;;;4997899;28;20124;-75
2022/02/27 10:51:15;;;;;;;9.43;5.90;;;5.60;99.90;;;;;;5014898;28;20475;-75
2022/02/27 10:53:45;;;;;;;9.90;5.87;;;5.30;99.90;;;;;;5014950;28;20030;-75
2022/02/27 10:56:15;;;;;;;10.97;5.93;;;5.10;99.90;;;;;;5014719;28;20033;-75
2022/02/27 10:58:45;;;;;;;9.50;5.93;;;4.90;99.90;;;;;;4997470;28;20026;-75
2022/02/27 11:01:24;;;;;;;9.83;5.97;;;4.90;99.90;;;;;;5014825;28;20030;-75
2022/02/27 11:03:51;;;;;;;11.07;6.23;;;4.90;99.90;;;;;;5014646;28;20112;-75
2022/02/27 11:06:18;;;;;;;9.93;6.40;;;5.10;99.90;;;;;;4997276;28;20144;-75
2022/02/27 11:08:44;;;;;;;9.60;6.13;;;5.30;99.90;;;;;;5014598;28;20026;-75
2022/02/27 11:11:11;;;;;;;10.67;7.10;;;5.30;99.90;;;;;;5014506;28;20534;-75
2022/02/27 11:13:37;;;;;;;11.17;6.33;;;5.40;99.90;;;;;;5034372;28;20452;-75
2022/02/27 11:16:03;;;;;;;10.67;6.10;;;5.40;99.90;;;;;;5016776;28;20033;-75
2022/02/27 11:18:29;;;;;;;7.80;5.70;;;5.60;99.90;;;;;;5014241;28;20030;-75
2022/02/27 11:20:56;;;;;;;8.77;5.87;;;5.90;99.90;;;;;;5014171;28;20060;-75
2022/02/27 11:23:23;;;;;;;7.77;5.00;;;6.20;99.90;;;;;;5014381;28;20543;-75
2022/02/27 11:25:50;;;;;;;15.63;8.00;;;6.20;99.90;;;;;;5014538;28;20092;-75
2022/02/27 11:28:19;;;;;;;10.87;5.90;;;6.40;99.90;;;;;;4996168;28;20065;-75
2022/02/27 11:30:47;;;;;;;8.30;4.93;;;6.60;99.90;;;;;;4996117;28;20744;-75
2022/02/27 11:33:22;;;;;;;9.27;5.50;;;6.60;99.90;;;;;;5014033;28;20030;-75
2022/02/27 11:35:50;;;;;;;10.05;5.15;;;6.80;99.90;;;;;;4996389;28;20435;-75
2022/02/27 11:38:19;;;;;;;8.37;5.30;;;6.80;99.90;;;;;;5001862;28;20501;-75
2022/02/27 11:40:52;;;;;;;9.73;4.70;;;6.80;99.90;;;;;;5007466;28;20050;-79
2022/02/27 11:43:39;;;;;;;9.17;6.00;;;7.00;99.90;;;;;;4996866;28;20022;-75
2022/02/27 11:46:06;;;;;;;7.03;4.90;;;7.10;99.90;;;;;;5010618;28;20030;-75
2022/02/27 11:48:56;;;;;;;10.00;5.23;;;7.50;99.90;;;;;;5010707;28;20026;-75
2022/02/27 11:51:36;;;;;;;7.87;5.30;;;7.60;99.70;;;;;;5002885;28;20026;-75
2022/02/27 11:54:05;;;;;;;8.93;5.50;;;7.50;99.90;;;;;;5002112;28;20120;-75
2022/02/27 11:56:32;;;;;;;8.70;5.50;;;7.40;99.80;;;;;;5020525;28;20140;-75
2022/02/27 11:58:58;;;;;;;8.33;6.00;;;7.30;99.90;;;;;;5023637;28;20093;-75
2022/02/27 12:01:46;;;;;;;10.10;5.40;;;7.30;99.90;;;;;;5005324;28;20029;-76
2022/02/27 12:04:20;;;;;;;9.37;5.83;;;7.60;99.90;;;;;;5023939;28;20033;-75
2022/02/27 12:06:59;;;;;;;8.48;5.38;;;7.50;97.90;;;;;;5007283;28;20095;-75
2022/02/27 12:09:25;;;;;;;8.30;5.30;;;7.40;97.80;;;;;;4994951;28;20084;-80
2022/02/27 12:11:51;;;;;;;8.83;5.60;;;7.20;98.30;;;;;;5015753;28;20073;-79
2022/02/27 12:14:17;;;;;;;10.17;6.27;;;7.20;98.60;;;;;;5012880;28;20533;-80
2022/02/27 12:16:47;;;;;;;11.20;6.97;;;7.40;99.70;;;;;;5015857;28;20033;-79
2022/02/27 12:19:31;;;;;;;10.87;6.50;;;7.60;98.80;;;;;;5014683;28;20029;-80
2022/02/27 12:21:59;;;;;;;10.20;6.33;;;8.00;98.80;;;;;;5015850;28;20041;-78
2022/02/27 12:24:31;;;;;;;8.10;5.53;;;8.00;97.70;;;;;;5014245;28;20103;-78
2022/02/27 12:27:01;;;;;;;9.67;8.00;;;8.00;97.10;;;;;;5016688;28;20080;-79
2022/02/27 12:29:41;;;;;;;43.17;24.33;;;8.10;97.20;;;;;;4994965;28;20030;-74
2022/02/27 12:32:16;;;;;;;10.10;6.73;;;8.30;94.60;;;;;;5003208;28;20029;-75
2022/02/27 12:34:44;;;;;;;;;;;8.70;93.60;;;;;;5017886;28;20475;-77
2022/02/27 12:37:12;;;;;;;15.00;9.50;;;8.80;92.60;;;;;;4997287;28;19909;-75
2022/02/27 12:40:04;;;;;;;;;;;;;;;;;;;;;
2022/02/27 12:42:33;;;;;;;8.37;5.90;;;9.20;94.00;;;;;;5012178;28;20040;-76